sensor_id;sensor_type;location;lat;lon;timestamp;P1;durP1;ratioP1;P2;durP2;ratioP2
61915;SDS011;47868;51.326;6.550;2023-04-24T00:00:55;3.42;;;1.58;;
61915;SDS011;47868;51.326;6.550;2023-04-24T00:03:22;3.22;;;2.13;;
61915;SDS011;47868;51.326;6.550;2023-04-24T00:05:48;1.80;;;1.65;;
61915;SDS011;47868;51.326;6.550;2023-04-24T00:08:14;3.22;;;2.30;;
61915;SDS011;47868;51.326;6.550;2023-04-24T00:10:40;2.58;;;2.03;;
61915;SDS011;47868;51.326;6.550;2023-04-24T00:13:07;1.63;;;1.55;;
61915;SDS011;47868;51.326;6.550;2023-04-24T00:15:33;4.45;;;2.10;;
61915;SDS011;47868;51.326;6.550;2023-04-24T00:17:59;2.47;;;2.28;;
61915;SDS011;47868;51.326;6.550;2023-04-24T00:20:26;3.72;;;2.38;;
61915;SDS011;47868;51.326;6.550;2023-04-24T00:22:54;3.88;;;2.78;;
61915;SDS011;47868;51.326;6.550;2023-04-24T00:25:20;5.20;;;2.80;;
61915;SDS011;47868;51.326;6.550;2023-04-24T00:27:46;3.88;;;3.10;;
61915;SDS011;47868;51.326;6.550;2023-04-24T00:30:12;3.42;;;3.13;;
61915;SDS011;47868;51.326;6.550;2023-04-24T00:32:38;3.00;;;2.75;;
61915;SDS011;47868;51.326;6.550;2023-04-24T00:35:05;3.80;;;3.50;;
61915;SDS011;47868;51.326;6.550;2023-04-24T00:37:31;4.65;;;4.05;;
61915;SDS011;47868;51.326;6.550;2023-04-24T00:39:57;5.70;;;4.13;;
61915;SDS011;47868;51.326;6.550;2023-04-24T00:42:23;4.35;;;3.95;;
61915;SDS011;47868;51.326;6.550;2023-04-24T00:44:50;5.15;;;4.30;;
61915;SDS011;47868;51.326;6.550;2023-04-24T00:47:16;5.03;;;4.53;;
61915;SDS011;47868;51.326;6.550;2023-04-24T00:49:42;5.90;;;4.40;;
61915;SDS011;47868;51.326;6.550;2023-04-24T00:52:08;5.97;;;4.43;;
61915;SDS011;47868;51.326;6.550;2023-04-24T00:54:35;5.28;;;4.53;;
61915;SDS011;47868;51.326;6.550;2023-04-24T00:57:05;5.95;;;4.93;;
61915;SDS011;47868;51.326;6.550;2023-04-24T00:59:31;8.00;;;4.93;;
61915;SDS011;47868;51.326;6.550;2023-04-24T01:01:57;5.13;;;4.47;;
61915;SDS011;47868;51.326;6.550;2023-04-24T01:04:23;5.70;;;5.10;;
61915;SDS011;47868;51.326;6.550;2023-04-24T01:06:51;6.07;;;5.10;;
61915;SDS011;47868;51.326;6.550;2023-04-24T01:09:17;6.85;;;5.40;;
61915;SDS011;47868;51.326;6.550;2023-04-24T01:11:43;6.93;;;5.93;;
61915;SDS011;47868;51.326;6.550;2023-04-24T01:14:09;10.23;;;6.00;;
61915;SDS011;47868;51.326;6.550;2023-04-24T01:16:36;8.35;;;5.63;;
61915;SDS011;47868;51.326;6.550;2023-04-24T01:19:03;7.53;;;5.93;;
61915;SDS011;47868;51.326;6.550;2023-04-24T01:21:29;7.78;;;6.00;;
61915;SDS011;47868;51.326;6.550;2023-04-24T01:23:56;9.63;;;5.78;;
61915;SDS011;47868;51.326;6.550;2023-04-24T01:26:22;7.35;;;5.20;;
61915;SDS011;47868;51.326;6.550;2023-04-24T01:28:50;5.20;;;4.75;;
61915;SDS011;47868;51.326;6.550;2023-04-24T01:31:17;6.95;;;5.50;;
61915;SDS011;47868;51.326;6.550;2023-04-24T01:33:43;6.07;;;5.47;;
61915;SDS011;47868;51.326;6.550;2023-04-24T01:36:10;9.80;;;5.03;;
61915;SDS011;47868;51.326;6.550;2023-04-24T01:38:37;5.68;;;4.82;;
61915;SDS011;47868;51.326;6.550;2023-04-24T01:41:03;6.47;;;4.78;;
61915;SDS011;47868;51.326;6.550;2023-04-24T01:43:29;7.80;;;6.13;;
61915;SDS011;47868;51.326;6.550;2023-04-24T01:45:55;7.05;;;5.88;;
61915;SDS011;47868;51.326;6.550;2023-04-24T01:48:21;8.20;;;6.32;;
61915;SDS011;47868;51.326;6.550;2023-04-24T01:50:47;7.80;;;6.65;;
61915;SDS011;47868;51.326;6.550;2023-04-24T01:53:14;7.30;;;6.55;;
61915;SDS011;47868;51.326;6.550;2023-04-24T01:55:40;9.55;;;6.55;;
61915;SDS011;47868;51.326;6.550;2023-04-24T01:58:06;8.48;;;6.50;;
61915;SDS011;47868;51.326;6.550;2023-04-24T02:00:32;10.45;;;7.60;;
61915;SDS011;47868;51.326;6.550;2023-04-24T02:02:58;8.73;;;7.55;;
61915;SDS011;47868;51.326;6.550;2023-04-24T02:05:26;15.40;;;8.10;;
61915;SDS011;47868;51.326;6.550;2023-04-24T02:07:52;14.52;;;8.23;;
61915;SDS011;47868;51.326;6.550;2023-04-24T02:10:18;13.25;;;8.70;;
61915;SDS011;47868;51.326;6.550;2023-04-24T02:12:44;10.85;;;8.07;;
61915;SDS011;47868;51.326;6.550;2023-04-24T02:15:10;11.20;;;9.10;;
61915;SDS011;47868;51.326;6.550;2023-04-24T02:17:37;10.50;;;8.60;;
61915;SDS011;47868;51.326;6.550;2023-04-24T02:20:03;10.73;;;9.18;;
61915;SDS011;47868;51.326;6.550;2023-04-24T02:22:30;15.00;;;9.75;;
61915;SDS011;47868;51.326;6.550;2023-04-24T02:24:56;16.48;;;10.73;;
61915;SDS011;47868;51.326;6.550;2023-04-24T02:27:22;14.75;;;9.98;;
61915;SDS011;47868;51.326;6.550;2023-04-24T02:29:48;13.07;;;10.27;;
61915;SDS011;47868;51.326;6.550;2023-04-24T02:32:14;15.88;;;11.57;;
61915;SDS011;47868;51.326;6.550;2023-04-24T02:34:40;14.57;;;10.32;;
61915;SDS011;47868;51.326;6.550;2023-04-24T02:37:06;13.82;;;10.27;;
61915;SDS011;47868;51.326;6.550;2023-04-24T02:39:32;13.52;;;10.80;;
61915;SDS011;47868;51.326;6.550;2023-04-24T02:41:58;16.90;;;11.27;;
61915;SDS011;47868;51.326;6.550;2023-04-24T02:44:25;17.20;;;11.15;;
61915;SDS011;47868;51.326;6.550;2023-04-24T02:46:51;16.73;;;11.27;;
61915;SDS011;47868;51.326;6.550;2023-04-24T02:49:17;14.15;;;11.38;;
61915;SDS011;47868;51.326;6.550;2023-04-24T02:51:43;13.93;;;10.95;;
61915;SDS011;47868;51.326;6.550;2023-04-24T02:54:09;15.95;;;11.88;;
61915;SDS011;47868;51.326;6.550;2023-04-24T02:56:35;17.25;;;11.73;;
61915;SDS011;47868;51.326;6.550;2023-04-24T02:59:01;14.75;;;12.05;;
61915;SDS011;47868;51.326;6.550;2023-04-24T03:01:28;17.20;;;12.77;;
61915;SDS011;47868;51.326;6.550;2023-04-24T03:03:54;19.38;;;12.27;;
61915;SDS011;47868;51.326;6.550;2023-04-24T03:06:20;16.02;;;11.93;;
61915;SDS011;47868;51.326;6.550;2023-04-24T03:08:46;17.23;;;12.25;;
61915;SDS011;47868;51.326;6.550;2023-04-24T03:11:12;18.08;;;12.55;;
61915;SDS011;47868;51.326;6.550;2023-04-24T03:13:38;20.00;;;12.82;;
61915;SDS011;47868;51.326;6.550;2023-04-24T03:16:04;16.17;;;12.05;;
61915;SDS011;47868;51.326;6.550;2023-04-24T03:18:30;16.70;;;11.52;;
61915;SDS011;47868;51.326;6.550;2023-04-24T03:20:56;14.98;;;11.82;;
61915;SDS011;47868;51.326;6.550;2023-04-24T03:23:22;19.30;;;11.48;;
61915;SDS011;47868;51.326;6.550;2023-04-24T03:25:48;16.90;;;11.40;;
61915;SDS011;47868;51.326;6.550;2023-04-24T03:28:14;17.77;;;11.38;;
61915;SDS011;47868;51.326;6.550;2023-04-24T03:30:40;15.32;;;11.02;;
61915;SDS011;47868;51.326;6.550;2023-04-24T03:33:07;17.67;;;11.40;;
61915;SDS011;47868;51.326;6.550;2023-04-24T03:35:33;16.35;;;11.07;;
61915;SDS011;47868;51.326;6.550;2023-04-24T03:37:59;14.63;;;10.65;;
61915;SDS011;47868;51.326;6.550;2023-04-24T03:40:25;17.48;;;10.40;;
61915;SDS011;47868;51.326;6.550;2023-04-24T03:42:51;14.38;;;10.85;;
61915;SDS011;47868;51.326;6.550;2023-04-24T03:45:17;15.18;;;11.23;;
61915;SDS011;47868;51.326;6.550;2023-04-24T03:47:43;14.45;;;10.40;;
61915;SDS011;47868;51.326;6.550;2023-04-24T03:50:09;16.48;;;10.90;;
61915;SDS011;47868;51.326;6.550;2023-04-24T03:52:35;12.20;;;10.02;;
61915;SDS011;47868;51.326;6.550;2023-04-24T03:55:01;14.02;;;10.60;;
61915;SDS011;47868;51.326;6.550;2023-04-24T03:57:27;18.35;;;10.73;;
61915;SDS011;47868;51.326;6.550;2023-04-24T03:59:53;14.77;;;10.77;;
61915;SDS011;47868;51.326;6.550;2023-04-24T04:02:20;15.07;;;10.63;;
61915;SDS011;47868;51.326;6.550;2023-04-24T04:04:46;14.82;;;10.63;;
61915;SDS011;47868;51.326;6.550;2023-04-24T04:07:12;14.65;;;11.20;;
61915;SDS011;47868;51.326;6.550;2023-04-24T04:09:38;15.00;;;10.50;;
61915;SDS011;47868;51.326;6.550;2023-04-24T04:12:04;14.43;;;10.88;;
61915;SDS011;47868;51.326;6.550;2023-04-24T04:14:30;14.90;;;9.75;;
61915;SDS011;47868;51.326;6.550;2023-04-24T04:16:56;16.38;;;10.32;;
61915;SDS011;47868;51.326;6.550;2023-04-24T04:19:22;18.65;;;10.70;;
61915;SDS011;47868;51.326;6.550;2023-04-24T04:21:48;13.18;;;10.02;;
61915;SDS011;47868;51.326;6.550;2023-04-24T04:24:18;17.02;;;10.57;;
61915;SDS011;47868;51.326;6.550;2023-04-24T04:26:45;15.63;;;9.82;;
61915;SDS011;47868;51.326;6.550;2023-04-24T04:29:12;10.70;;;9.50;;
61915;SDS011;47868;51.326;6.550;2023-04-24T04:31:38;14.93;;;9.95;;
61915;SDS011;47868;51.326;6.550;2023-04-24T04:34:04;10.10;;;9.05;;
61915;SDS011;47868;51.326;6.550;2023-04-24T04:36:30;12.90;;;9.15;;
61915;SDS011;47868;51.326;6.550;2023-04-24T04:38:57;12.55;;;9.05;;
61915;SDS011;47868;51.326;6.550;2023-04-24T04:41:24;11.45;;;8.68;;
61915;SDS011;47868;51.326;6.550;2023-04-24T04:43:51;10.13;;;9.13;;
61915;SDS011;47868;51.326;6.550;2023-04-24T04:46:17;10.13;;;8.07;;
61915;SDS011;47868;51.326;6.550;2023-04-24T04:48:43;12.38;;;8.60;;
61915;SDS011;47868;51.326;6.550;2023-04-24T04:51:10;8.95;;;8.02;;
61915;SDS011;47868;51.326;6.550;2023-04-24T04:53:36;8.88;;;7.97;;
61915;SDS011;47868;51.326;6.550;2023-04-24T04:56:02;14.07;;;9.20;;
61915;SDS011;47868;51.326;6.550;2023-04-24T04:58:28;12.00;;;9.60;;
61915;SDS011;47868;51.326;6.550;2023-04-24T05:00:55;13.35;;;10.07;;
61915;SDS011;47868;51.326;6.550;2023-04-24T05:03:22;13.40;;;9.52;;
61915;SDS011;47868;51.326;6.550;2023-04-24T05:05:48;13.88;;;10.20;;
61915;SDS011;47868;51.326;6.550;2023-04-24T05:08:14;16.33;;;9.57;;
61915;SDS011;47868;51.326;6.550;2023-04-24T05:10:40;11.90;;;9.98;;
61915;SDS011;47868;51.326;6.550;2023-04-24T05:13:06;11.43;;;10.18;;
61915;SDS011;47868;51.326;6.550;2023-04-24T05:15:32;12.32;;;10.25;;
61915;SDS011;47868;51.326;6.550;2023-04-24T05:17:58;13.45;;;10.20;;
61915;SDS011;47868;51.326;6.550;2023-04-24T05:20:24;15.40;;;9.98;;
61915;SDS011;47868;51.326;6.550;2023-04-24T05:22:50;10.55;;;9.48;;
61915;SDS011;47868;51.326;6.550;2023-04-24T05:25:16;10.23;;;9.00;;
61915;SDS011;47868;51.326;6.550;2023-04-24T05:27:42;11.23;;;9.35;;
61915;SDS011;47868;51.326;6.550;2023-04-24T05:30:09;10.43;;;8.63;;
61915;SDS011;47868;51.326;6.550;2023-04-24T05:32:35;11.82;;;9.15;;
61915;SDS011;47868;51.326;6.550;2023-04-24T05:35:01;10.60;;;8.48;;
61915;SDS011;47868;51.326;6.550;2023-04-24T05:37:27;16.20;;;9.15;;
61915;SDS011;47868;51.326;6.550;2023-04-24T05:39:53;10.38;;;9.23;;
61915;SDS011;47868;51.326;6.550;2023-04-24T05:42:19;11.23;;;8.70;;
61915;SDS011;47868;51.326;6.550;2023-04-24T05:44:45;11.48;;;8.27;;
61915;SDS011;47868;51.326;6.550;2023-04-24T05:47:11;9.77;;;8.63;;
61915;SDS011;47868;51.326;6.550;2023-04-24T05:49:37;11.82;;;8.68;;
61915;SDS011;47868;51.326;6.550;2023-04-24T05:52:04;10.40;;;9.27;;
61915;SDS011;47868;51.326;6.550;2023-04-24T05:54:31;12.05;;;9.05;;
61915;SDS011;47868;51.326;6.550;2023-04-24T05:56:57;11.65;;;8.52;;
61915;SDS011;47868;51.326;6.550;2023-04-24T05:59:23;10.20;;;9.00;;
61915;SDS011;47868;51.326;6.550;2023-04-24T06:01:49;9.68;;;8.00;;
61915;SDS011;47868;51.326;6.550;2023-04-24T06:04:15;12.88;;;8.80;;
61915;SDS011;47868;51.326;6.550;2023-04-24T06:06:41;8.50;;;7.68;;
61915;SDS011;47868;51.326;6.550;2023-04-24T06:09:07;8.88;;;8.05;;
61915;SDS011;47868;51.326;6.550;2023-04-24T06:11:33;8.85;;;7.65;;
61915;SDS011;47868;51.326;6.550;2023-04-24T06:13:59;7.72;;;6.93;;
61915;SDS011;47868;51.326;6.550;2023-04-24T06:16:25;7.18;;;6.35;;
61915;SDS011;47868;51.326;6.550;2023-04-24T06:18:51;7.53;;;6.47;;
61915;SDS011;47868;51.326;6.550;2023-04-24T06:21:17;8.32;;;6.45;;
61915;SDS011;47868;51.326;6.550;2023-04-24T06:23:43;9.10;;;6.28;;
61915;SDS011;47868;51.326;6.550;2023-04-24T06:26:11;7.10;;;5.72;;
61915;SDS011;47868;51.326;6.550;2023-04-24T06:28:37;6.60;;;6.00;;
61915;SDS011;47868;51.326;6.550;2023-04-24T06:31:03;6.80;;;6.10;;
61915;SDS011;47868;51.326;6.550;2023-04-24T06:33:29;7.47;;;5.70;;
61915;SDS011;47868;51.326;6.550;2023-04-24T06:35:55;7.13;;;6.25;;
61915;SDS011;47868;51.326;6.550;2023-04-24T06:38:21;6.88;;;5.78;;
61915;SDS011;47868;51.326;6.550;2023-04-24T06:40:47;6.28;;;5.68;;
61915;SDS011;47868;51.326;6.550;2023-04-24T06:43:13;8.13;;;5.93;;
61915;SDS011;47868;51.326;6.550;2023-04-24T06:45:39;9.05;;;5.72;;
61915;SDS011;47868;51.326;6.550;2023-04-24T06:48:06;6.72;;;5.53;;
61915;SDS011;47868;51.326;6.550;2023-04-24T06:50:32;6.00;;;5.13;;
61915;SDS011;47868;51.326;6.550;2023-04-24T06:52:58;5.22;;;4.82;;
61915;SDS011;47868;51.326;6.550;2023-04-24T06:55:23;7.97;;;4.25;;
61915;SDS011;47868;51.326;6.550;2023-04-24T06:57:50;4.68;;;3.15;;
61915;SDS011;47868;51.326;6.550;2023-04-24T07:00:16;3.00;;;2.80;;
61915;SDS011;47868;51.326;6.550;2023-04-24T07:02:42;3.72;;;2.60;;
61915;SDS011;47868;51.326;6.550;2023-04-24T07:05:08;5.00;;;2.88;;
61915;SDS011;47868;51.326;6.550;2023-04-24T07:07:34;2.33;;;2.13;;
61915;SDS011;47868;51.326;6.550;2023-04-24T07:10:03;2.40;;;1.98;;
61915;SDS011;47868;51.326;6.550;2023-04-24T07:12:29;2.38;;;2.15;;
61915;SDS011;47868;51.326;6.550;2023-04-24T07:14:55;1.38;;;1.35;;
61915;SDS011;47868;51.326;6.550;2023-04-24T07:17:21;1.63;;;1.52;;
61915;SDS011;47868;51.326;6.550;2023-04-24T07:19:47;1.40;;;1.30;;
61915;SDS011;47868;51.326;6.550;2023-04-24T07:22:13;1.50;;;1.40;;
61915;SDS011;47868;51.326;6.550;2023-04-24T07:24:42;1.23;;;1.10;;
61915;SDS011;47868;51.326;6.550;2023-04-24T07:27:08;1.00;;;1.00;;
61915;SDS011;47868;51.326;6.550;2023-04-24T07:29:34;1.40;;;1.30;;
61915;SDS011;47868;51.326;6.550;2023-04-24T07:32:01;1.10;;;1.10;;
61915;SDS011;47868;51.326;6.550;2023-04-24T07:34:27;1.20;;;1.10;;
61915;SDS011;47868;51.326;6.550;2023-04-24T07:36:53;1.92;;;1.20;;
61915;SDS011;47868;51.326;6.550;2023-04-24T07:39:19;3.45;;;1.20;;
61915;SDS011;47868;51.326;6.550;2023-04-24T07:41:45;1.15;;;1.10;;
61915;SDS011;47868;51.326;6.550;2023-04-24T07:44:11;5.38;;;1.30;;
61915;SDS011;47868;51.326;6.550;2023-04-24T07:46:37;1.60;;;1.50;;
61915;SDS011;47868;51.326;6.550;2023-04-24T07:49:04;2.42;;;1.42;;
61915;SDS011;47868;51.326;6.550;2023-04-24T07:51:30;1.63;;;1.52;;
61915;SDS011;47868;51.326;6.550;2023-04-24T07:53:58;1.95;;;1.77;;
61915;SDS011;47868;51.326;6.550;2023-04-24T07:56:24;3.33;;;1.60;;
61915;SDS011;47868;51.326;6.550;2023-04-24T07:58:50;1.83;;;1.73;;
61915;SDS011;47868;51.326;6.550;2023-04-24T08:01:16;1.92;;;1.83;;
61915;SDS011;47868;51.326;6.550;2023-04-24T08:03:42;2.47;;;2.28;;
61915;SDS011;47868;51.326;6.550;2023-04-24T08:06:08;2.10;;;2.00;;
61915;SDS011;47868;51.326;6.550;2023-04-24T08:08:34;1.95;;;1.73;;
61915;SDS011;47868;51.326;6.550;2023-04-24T08:11:01;2.13;;;1.33;;
61915;SDS011;47868;51.326;6.550;2023-04-24T08:13:27;1.98;;;1.52;;
61915;SDS011;47868;51.326;6.550;2023-04-24T08:15:53;1.73;;;1.48;;
61915;SDS011;47868;51.326;6.550;2023-04-24T08:18:19;1.70;;;1.38;;
61915;SDS011;47868;51.326;6.550;2023-04-24T08:20:45;1.30;;;1.20;;
61915;SDS011;47868;51.326;6.550;2023-04-24T08:23:11;1.13;;;1.05;;
61915;SDS011;47868;51.326;6.550;2023-04-24T08:25:37;1.75;;;1.35;;
61915;SDS011;47868;51.326;6.550;2023-04-24T08:28:05;1.38;;;1.27;;
61915;SDS011;47868;51.326;6.550;2023-04-24T08:30:31;1.50;;;1.40;;
61915;SDS011;47868;51.326;6.550;2023-04-24T08:32:57;2.00;;;1.48;;
61915;SDS011;47868;51.326;6.550;2023-04-24T08:35:23;1.70;;;1.60;;
61915;SDS011;47868;51.326;6.550;2023-04-24T08:37:49;3.95;;;1.85;;
61915;SDS011;47868;51.326;6.550;2023-04-24T08:40:16;4.28;;;1.80;;
61915;SDS011;47868;51.326;6.550;2023-04-24T08:42:43;2.20;;;2.00;;
61915;SDS011;47868;51.326;6.550;2023-04-24T08:45:10;5.30;;;4.80;;
61915;SDS011;47868;51.326;6.550;2023-04-24T08:47:37;8.68;;;5.97;;
61915;SDS011;47868;51.326;6.550;2023-04-24T08:50:04;7.25;;;6.55;;
61915;SDS011;47868;51.326;6.550;2023-04-24T08:52:32;6.03;;;5.07;;
61915;SDS011;47868;51.326;6.550;2023-04-24T08:54:58;7.10;;;4.55;;
61915;SDS011;47868;51.326;6.550;2023-04-24T08:57:26;7.82;;;5.18;;
61915;SDS011;47868;51.326;6.550;2023-04-24T08:59:53;6.18;;;5.50;;
61915;SDS011;47868;51.326;6.550;2023-04-24T09:02:19;8.75;;;6.13;;
61915;SDS011;47868;51.326;6.550;2023-04-24T09:04:45;8.38;;;6.43;;
61915;SDS011;47868;51.326;6.550;2023-04-24T09:07:12;7.13;;;5.93;;
61915;SDS011;47868;51.326;6.550;2023-04-24T09:09:40;8.57;;;6.57;;
61915;SDS011;47868;51.326;6.550;2023-04-24T09:12:06;7.63;;;6.60;;
61915;SDS011;47868;51.326;6.550;2023-04-24T09:14:34;9.43;;;6.10;;
61915;SDS011;47868;51.326;6.550;2023-04-24T09:17:03;6.00;;;5.40;;
61915;SDS011;47868;51.326;6.550;2023-04-24T09:19:29;8.77;;;5.25;;
61915;SDS011;47868;51.326;6.550;2023-04-24T09:21:55;7.75;;;5.25;;
61915;SDS011;47868;51.326;6.550;2023-04-24T09:24:22;6.68;;;5.93;;
61915;SDS011;47868;51.326;6.550;2023-04-24T09:26:49;9.98;;;6.18;;
61915;SDS011;47868;51.326;6.550;2023-04-24T09:29:23;9.98;;;6.15;;
61915;SDS011;47868;51.326;6.550;2023-04-24T09:31:49;10.77;;;7.18;;
61915;SDS011;47868;51.326;6.550;2023-04-24T09:34:19;9.05;;;6.50;;
61915;SDS011;47868;51.326;6.550;2023-04-24T09:36:46;13.20;;;7.18;;
61915;SDS011;47868;51.326;6.550;2023-04-24T09:39:13;10.38;;;6.50;;
61915;SDS011;47868;51.326;6.550;2023-04-24T09:44:17;13.27;;;6.32;;
61915;SDS011;47868;51.326;6.550;2023-04-24T09:46:49;12.02;;;6.65;;
61915;SDS011;47868;51.326;6.550;2023-04-24T09:49:19;8.73;;;5.70;;
61915;SDS011;47868;51.326;6.550;2023-04-24T09:51:46;12.63;;;6.95;;
61915;SDS011;47868;51.326;6.550;2023-04-24T09:54:16;11.27;;;6.93;;
61915;SDS011;47868;51.326;6.550;2023-04-24T09:56:43;9.77;;;4.93;;
61915;SDS011;47868;51.326;6.550;2023-04-24T09:59:10;10.32;;;5.10;;
61915;SDS011;47868;51.326;6.550;2023-04-24T10:01:36;10.82;;;4.78;;
61915;SDS011;47868;51.326;6.550;2023-04-24T10:04:03;10.52;;;4.22;;
61915;SDS011;47868;51.326;6.550;2023-04-24T10:06:31;6.35;;;4.55;;
61915;SDS011;47868;51.326;6.550;2023-04-24T10:08:57;9.32;;;4.57;;
61915;SDS011;47868;51.326;6.550;2023-04-24T10:11:25;7.78;;;4.40;;
61915;SDS011;47868;51.326;6.550;2023-04-24T10:13:52;9.30;;;4.95;;
61915;SDS011;47868;51.326;6.550;2023-04-24T10:16:19;8.60;;;4.80;;
61915;SDS011;47868;51.326;6.550;2023-04-24T10:18:47;6.60;;;4.20;;
61915;SDS011;47868;51.326;6.550;2023-04-24T10:21:14;9.73;;;4.88;;
61915;SDS011;47868;51.326;6.550;2023-04-24T10:23:40;12.43;;;6.10;;
61915;SDS011;47868;51.326;6.550;2023-04-24T10:26:08;13.27;;;5.63;;
61915;SDS011;47868;51.326;6.550;2023-04-24T10:28:36;10.30;;;5.68;;
61915;SDS011;47868;51.326;6.550;2023-04-24T10:31:02;12.15;;;5.53;;
61915;SDS011;47868;51.326;6.550;2023-04-24T10:33:29;15.98;;;6.53;;
61915;SDS011;47868;51.326;6.550;2023-04-24T10:35:56;13.80;;;5.78;;
61915;SDS011;47868;51.326;6.550;2023-04-24T10:38:24;12.85;;;5.85;;
61915;SDS011;47868;51.326;6.550;2023-04-24T10:40:51;13.32;;;5.63;;
61915;SDS011;47868;51.326;6.550;2023-04-24T10:43:23;16.20;;;6.40;;
61915;SDS011;47868;51.326;6.550;2023-04-24T10:46:07;13.15;;;6.55;;
61915;SDS011;47868;51.326;6.550;2023-04-24T10:48:35;14.23;;;7.00;;
61915;SDS011;47868;51.326;6.550;2023-04-24T10:51:01;13.55;;;5.95;;
61915;SDS011;47868;51.326;6.550;2023-04-24T10:53:28;18.98;;;6.95;;
61915;SDS011;47868;51.326;6.550;2023-04-24T10:58:24;15.13;;;6.78;;
61915;SDS011;47868;51.326;6.550;2023-04-24T11:00:57;14.23;;;6.47;;
61915;SDS011;47868;51.326;6.550;2023-04-24T11:08:23;13.50;;;4.95;;
61915;SDS011;47868;51.326;6.550;2023-04-24T11:11:01;12.88;;;4.47;;
61915;SDS011;47868;51.326;6.550;2023-04-24T11:14:00;9.00;;;4.20;;
61915;SDS011;47868;51.326;6.550;2023-04-24T11:18:52;10.20;;;3.80;;
61915;SDS011;47868;51.326;6.550;2023-04-24T11:21:19;9.65;;;3.90;;
61915;SDS011;47868;51.326;6.550;2023-04-24T11:23:46;11.98;;;4.53;;
61915;SDS011;47868;51.326;6.550;2023-04-24T11:26:19;9.88;;;4.28;;
61915;SDS011;47868;51.326;6.550;2023-04-24T11:28:48;10.75;;;4.05;;
61915;SDS011;47868;51.326;6.550;2023-04-24T11:34:05;10.88;;;4.22;;
61915;SDS011;47868;51.326;6.550;2023-04-24T11:36:31;13.23;;;4.45;;
61915;SDS011;47868;51.326;6.550;2023-04-24T11:38:58;10.25;;;4.60;;
61915;SDS011;47868;51.326;6.550;2023-04-24T11:41:24;14.05;;;4.45;;
61915;SDS011;47868;51.326;6.550;2023-04-24T11:43:51;14.60;;;4.70;;
61915;SDS011;47868;51.326;6.550;2023-04-24T11:46:18;9.05;;;5.05;;
61915;SDS011;47868;51.326;6.550;2023-04-24T11:48:47;17.60;;;5.78;;
61915;SDS011;47868;51.326;6.550;2023-04-24T11:51:13;12.90;;;4.55;;
61915;SDS011;47868;51.326;6.550;2023-04-24T11:53:39;7.93;;;3.90;;
61915;SDS011;47868;51.326;6.550;2023-04-24T11:56:06;10.85;;;4.03;;
61915;SDS011;47868;51.326;6.550;2023-04-24T11:58:38;8.55;;;3.72;;
61915;SDS011;47868;51.326;6.550;2023-04-24T12:01:04;7.05;;;3.47;;
61915;SDS011;47868;51.326;6.550;2023-04-24T12:03:31;7.53;;;3.50;;
61915;SDS011;47868;51.326;6.550;2023-04-24T12:06:07;9.60;;;3.15;;
61915;SDS011;47868;51.326;6.550;2023-04-24T12:08:33;7.32;;;3.20;;
61915;SDS011;47868;51.326;6.550;2023-04-24T12:11:00;6.35;;;3.28;;
61915;SDS011;47868;51.326;6.550;2023-04-24T12:13:26;8.05;;;3.22;;
61915;SDS011;47868;51.326;6.550;2023-04-24T12:15:52;5.78;;;2.72;;
61915;SDS011;47868;51.326;6.550;2023-04-24T12:18:18;8.10;;;3.17;;
61915;SDS011;47868;51.326;6.550;2023-04-24T12:20:47;9.55;;;2.90;;
61915;SDS011;47868;51.326;6.550;2023-04-24T12:23:13;7.10;;;2.95;;
61915;SDS011;47868;51.326;6.550;2023-04-24T12:25:40;8.65;;;2.97;;
61915;SDS011;47868;51.326;6.550;2023-04-24T12:30:38;6.45;;;2.85;;
61915;SDS011;47868;51.326;6.550;2023-04-24T12:33:05;5.68;;;2.60;;
61915;SDS011;47868;51.326;6.550;2023-04-24T12:35:31;6.35;;;2.10;;
61915;SDS011;47868;51.326;6.550;2023-04-24T12:38:10;6.90;;;2.33;;
61915;SDS011;47868;51.326;6.550;2023-04-24T12:40:40;5.85;;;2.10;;
61915;SDS011;47868;51.326;6.550;2023-04-24T12:43:16;5.38;;;2.42;;
61915;SDS011;47868;51.326;6.550;2023-04-24T12:45:43;3.92;;;1.98;;
61915;SDS011;47868;51.326;6.550;2023-04-24T12:48:10;4.15;;;2.28;;
61915;SDS011;47868;51.326;6.550;2023-04-24T12:50:36;5.88;;;2.50;;
61915;SDS011;47868;51.326;6.550;2023-04-24T12:53:02;7.43;;;2.03;;
61915;SDS011;47868;51.326;6.550;2023-04-24T12:55:28;5.32;;;2.20;;
61915;SDS011;47868;51.326;6.550;2023-04-24T12:57:54;4.82;;;2.13;;
61915;SDS011;47868;51.326;6.550;2023-04-24T13:00:21;2.30;;;1.73;;
61915;SDS011;47868;51.326;6.550;2023-04-24T13:02:47;2.30;;;1.75;;
61915;SDS011;47868;51.326;6.550;2023-04-24T13:05:13;3.78;;;1.90;;
61915;SDS011;47868;51.326;6.550;2023-04-24T13:07:40;5.63;;;2.20;;
61915;SDS011;47868;51.326;6.550;2023-04-24T13:10:06;4.68;;;1.60;;
61915;SDS011;47868;51.326;6.550;2023-04-24T13:12:33;2.35;;;1.70;;
61915;SDS011;47868;51.326;6.550;2023-04-24T13:14:59;8.98;;;1.98;;
61915;SDS011;47868;51.326;6.550;2023-04-24T13:17:25;3.13;;;1.70;;
61915;SDS011;47868;51.326;6.550;2023-04-24T13:20:00;2.63;;;1.60;;
61915;SDS011;47868;51.326;6.550;2023-04-24T13:22:27;3.53;;;1.90;;
61915;SDS011;47868;51.326;6.550;2023-04-24T13:24:53;3.75;;;1.70;;
61915;SDS011;47868;51.326;6.550;2023-04-24T13:27:19;4.63;;;1.90;;
61915;SDS011;47868;51.326;6.550;2023-04-24T13:29:45;3.30;;;1.63;;
61915;SDS011;47868;51.326;6.550;2023-04-24T13:32:12;3.00;;;1.60;;
61915;SDS011;47868;51.326;6.550;2023-04-24T13:34:38;1.80;;;1.33;;
61915;SDS011;47868;51.326;6.550;2023-04-24T13:37:04;3.75;;;1.75;;
61915;SDS011;47868;51.326;6.550;2023-04-24T13:39:30;5.40;;;1.80;;
61915;SDS011;47868;51.326;6.550;2023-04-24T13:41:56;2.95;;;2.10;;
61915;SDS011;47868;51.326;6.550;2023-04-24T13:44:23;4.43;;;1.75;;
61915;SDS011;47868;51.326;6.550;2023-04-24T13:46:50;5.57;;;2.00;;
61915;SDS011;47868;51.326;6.550;2023-04-24T13:49:18;2.45;;;1.90;;
61915;SDS011;47868;51.326;6.550;2023-04-24T13:51:45;4.00;;;1.80;;
61915;SDS011;47868;51.326;6.550;2023-04-24T13:54:11;4.32;;;1.90;;
61915;SDS011;47868;51.326;6.550;2023-04-24T13:56:37;3.75;;;1.52;;
61915;SDS011;47868;51.326;6.550;2023-04-24T13:59:04;5.07;;;1.98;;
61915;SDS011;47868;51.326;6.550;2023-04-24T14:01:30;5.53;;;1.77;;
61915;SDS011;47868;51.326;6.550;2023-04-24T14:03:56;2.33;;;1.70;;
61915;SDS011;47868;51.326;6.550;2023-04-24T14:06:22;2.85;;;1.90;;
61915;SDS011;47868;51.326;6.550;2023-04-24T14:08:49;3.08;;;1.75;;
61915;SDS011;47868;51.326;6.550;2023-04-24T14:11:16;3.35;;;1.55;;
61915;SDS011;47868;51.326;6.550;2023-04-24T14:13:42;5.07;;;1.80;;
61915;SDS011;47868;51.326;6.550;2023-04-24T14:16:09;2.67;;;1.85;;
61915;SDS011;47868;51.326;6.550;2023-04-24T14:18:35;3.10;;;1.75;;
61915;SDS011;47868;51.326;6.550;2023-04-24T14:21:04;9.07;;;1.80;;
61915;SDS011;47868;51.326;6.550;2023-04-24T14:23:30;9.65;;;1.77;;
61915;SDS011;47868;51.326;6.550;2023-04-24T14:25:57;7.72;;;1.80;;
61915;SDS011;47868;51.326;6.550;2023-04-24T14:28:23;8.88;;;1.80;;
61915;SDS011;47868;51.326;6.550;2023-04-24T14:30:50;4.10;;;1.65;;
61915;SDS011;47868;51.326;6.550;2023-04-24T14:33:16;5.20;;;2.17;;
61915;SDS011;47868;51.326;6.550;2023-04-24T14:35:43;2.92;;;2.05;;
61915;SDS011;47868;51.326;6.550;2023-04-24T14:38:09;5.63;;;1.98;;
61915;SDS011;47868;51.326;6.550;2023-04-24T14:40:35;4.68;;;1.85;;
61915;SDS011;47868;51.326;6.550;2023-04-24T14:43:01;3.15;;;2.25;;
61915;SDS011;47868;51.326;6.550;2023-04-24T14:45:27;4.32;;;2.10;;
61915;SDS011;47868;51.326;6.550;2023-04-24T14:47:54;3.33;;;2.03;;
61915;SDS011;47868;51.326;6.550;2023-04-24T14:50:20;3.28;;;1.90;;
61915;SDS011;47868;51.326;6.550;2023-04-24T14:52:46;7.80;;;2.10;;
61915;SDS011;47868;51.326;6.550;2023-04-24T14:55:12;4.63;;;2.03;;